sensor_id;sensor_type;location;lat;lon;timestamp;temperature;humidity
51500;DHT22;39101;53.478;6.158;2023-04-15T00:01:25;6.90;99.90
51500;DHT22;39101;53.478;6.158;2023-04-15T00:03:52;6.80;99.90
51500;DHT22;39101;53.478;6.158;2023-04-15T00:06:18;6.90;99.90
51500;DHT22;39101;53.478;6.158;2023-04-15T00:08:44;7.00;99.90
51500;DHT22;39101;53.478;6.158;2023-04-15T00:11:10;7.00;99.90
51500;DHT22;39101;53.478;6.158;2023-04-15T00:13:37;7.00;99.90
51500;DHT22;39101;53.478;6.158;2023-04-15T00:16:03;6.90;99.90
51500;DHT22;39101;53.478;6.158;2023-04-15T00:18:29;7.10;99.90
51500;DHT22;39101;53.478;6.158;2023-04-15T00:20:54;7.00;99.90
51500;DHT22;39101;53.478;6.158;2023-04-15T00:23:20;7.10;99.90
51500;DHT22;39101;53.478;6.158;2023-04-15T00:25:46;7.00;99.90
51500;DHT22;39101;53.478;6.158;2023-04-15T00:28:12;6.90;99.90
51500;DHT22;39101;53.478;6.158;2023-04-15T00:30:38;7.10;99.90
51500;DHT22;39101;53.478;6.158;2023-04-15T00:33:03;7.10;99.90
51500;DHT22;39101;53.478;6.158;2023-04-15T00:35:29;7.00;99.90
51500;DHT22;39101;53.478;6.158;2023-04-15T00:37:58;7.00;99.90
51500;DHT22;39101;53.478;6.158;2023-04-15T00:40:24;7.00;99.90
51500;DHT22;39101;53.478;6.158;2023-04-15T00:42:51;7.00;99.90
51500;DHT22;39101;53.478;6.158;2023-04-15T00:45:17;7.00;99.90
51500;DHT22;39101;53.478;6.158;2023-04-15T00:47:43;7.00;99.90
51500;DHT22;39101;53.478;6.158;2023-04-15T00:50:10;7.00;99.90
51500;DHT22;39101;53.478;6.158;2023-04-15T00:52:37;6.80;99.90
51500;DHT22;39101;53.478;6.158;2023-04-15T00:55:04;6.90;99.90
51500;DHT22;39101;53.478;6.158;2023-04-15T00:57:30;6.90;99.90
51500;DHT22;39101;53.478;6.158;2023-04-15T00:59:56;6.90;99.90
51500;DHT22;39101;53.478;6.158;2023-04-15T01:02:23;6.70;99.90
51500;DHT22;39101;53.478;6.158;2023-04-15T01:04:49;6.70;99.90
51500;DHT22;39101;53.478;6.158;2023-04-15T01:07:15;6.80;99.90
51500;DHT22;39101;53.478;6.158;2023-04-15T01:09:42;6.70;99.90
51500;DHT22;39101;53.478;6.158;2023-04-15T01:12:11;6.50;99.90
51500;DHT22;39101;53.478;6.158;2023-04-15T01:14:36;6.60;99.90
51500;DHT22;39101;53.478;6.158;2023-04-15T01:17:02;6.70;99.90
51500;DHT22;39101;53.478;6.158;2023-04-15T01:19:28;6.50;99.90
51500;DHT22;39101;53.478;6.158;2023-04-15T01:21:54;6.70;99.90
51500;DHT22;39101;53.478;6.158;2023-04-15T01:24:20;6.60;99.90
51500;DHT22;39101;53.478;6.158;2023-04-15T01:26:47;6.50;99.90
51500;DHT22;39101;53.478;6.158;2023-04-15T01:29:14;6.60;99.90
51500;DHT22;39101;53.478;6.158;2023-04-15T01:31:47;6.50;99.90
51500;DHT22;39101;53.478;6.158;2023-04-15T01:34:14;6.50;99.90
51500;DHT22;39101;53.478;6.158;2023-04-15T01:36:39;6.50;99.90
51500;DHT22;39101;53.478;6.158;2023-04-15T01:39:05;6.60;99.90
51500;DHT22;39101;53.478;6.158;2023-04-15T01:41:31;6.50;99.90
51500;DHT22;39101;53.478;6.158;2023-04-15T01:43:57;6.60;99.90
51500;DHT22;39101;53.478;6.158;2023-04-15T01:46:22;6.30;99.90
51500;DHT22;39101;53.478;6.158;2023-04-15T01:48:48;6.30;99.90
51500;DHT22;39101;53.478;6.158;2023-04-15T01:51:14;6.40;99.90
51500;DHT22;39101;53.478;6.158;2023-04-15T01:53:40;6.40;99.90
51500;DHT22;39101;53.478;6.158;2023-04-15T01:56:06;6.50;99.90
51500;DHT22;39101;53.478;6.158;2023-04-15T01:58:32;6.30;99.90
51500;DHT22;39101;53.478;6.158;2023-04-15T02:00:57;6.40;99.90
51500;DHT22;39101;53.478;6.158;2023-04-15T02:03:24;6.40;99.90
51500;DHT22;39101;53.478;6.158;2023-04-15T02:05:50;6.40;99.90
51500;DHT22;39101;53.478;6.158;2023-04-15T02:08:16;6.40;99.90
51500;DHT22;39101;53.478;6.158;2023-04-15T02:10:42;6.40;99.90
51500;DHT22;39101;53.478;6.158;2023-04-15T02:13:08;6.40;99.90
51500;DHT22;39101;53.478;6.158;2023-04-15T02:15:34;6.30;99.90
51500;DHT22;39101;53.478;6.158;2023-04-15T02:17:59;6.20;99.90
51500;DHT22;39101;53.478;6.158;2023-04-15T02:20:26;6.30;99.90
51500;DHT22;39101;53.478;6.158;2023-04-15T02:22:52;6.20;99.90
51500;DHT22;39101;53.478;6.158;2023-04-15T02:25:17;6.40;99.90
51500;DHT22;39101;53.478;6.158;2023-04-15T02:27:44;6.20;99.90
51500;DHT22;39101;53.478;6.158;2023-04-15T02:30:10;6.30;99.90
51500;DHT22;39101;53.478;6.158;2023-04-15T02:32:36;6.20;99.90
51500;DHT22;39101;53.478;6.158;2023-04-15T02:35:07;6.20;99.90
51500;DHT22;39101;53.478;6.158;2023-04-15T02:37:35;6.30;99.90
51500;DHT22;39101;53.478;6.158;2023-04-15T02:40:07;6.30;99.90
51500;DHT22;39101;53.478;6.158;2023-04-15T02:42:33;6.30;99.90
51500;DHT22;39101;53.478;6.158;2023-04-15T02:44:58;6.20;99.90
51500;DHT22;39101;53.478;6.158;2023-04-15T02:47:24;6.30;99.90
51500;DHT22;39101;53.478;6.158;2023-04-15T02:49:50;6.10;99.90
51500;DHT22;39101;53.478;6.158;2023-04-15T02:52:16;6.40;99.90
51500;DHT22;39101;53.478;6.158;2023-04-15T02:54:42;6.30;99.90
51500;DHT22;39101;53.478;6.158;2023-04-15T02:57:07;6.10;99.90
51500;DHT22;39101;53.478;6.158;2023-04-15T02:59:35;6.40;99.90
51500;DHT22;39101;53.478;6.158;2023-04-15T03:02:00;6.40;99.90
51500;DHT22;39101;53.478;6.158;2023-04-15T03:04:26;6.30;99.90
51500;DHT22;39101;53.478;6.158;2023-04-15T03:06:54;6.20;99.90
51500;DHT22;39101;53.478;6.158;2023-04-15T03:09:21;6.20;99.90
51500;DHT22;39101;53.478;6.158;2023-04-15T03:11:46;6.20;99.90
51500;DHT22;39101;53.478;6.158;2023-04-15T03:14:12;6.10;99.90
51500;DHT22;39101;53.478;6.158;2023-04-15T03:16:38;6.20;99.90
51500;DHT22;39101;53.478;6.158;2023-04-15T03:19:04;6.10;99.90
51500;DHT22;39101;53.478;6.158;2023-04-15T03:21:29;6.00;99.90
51500;DHT22;39101;53.478;6.158;2023-04-15T03:23:55;6.00;99.90
51500;DHT22;39101;53.478;6.158;2023-04-15T03:26:28;6.20;99.90
51500;DHT22;39101;53.478;6.158;2023-04-15T03:28:56;6.20;99.90
51500;DHT22;39101;53.478;6.158;2023-04-15T03:31:22;6.10;99.90
51500;DHT22;39101;53.478;6.158;2023-04-15T03:33:48;6.20;99.90
51500;DHT22;39101;53.478;6.158;2023-04-15T03:36:14;5.90;99.90
51500;DHT22;39101;53.478;6.158;2023-04-15T03:38:41;6.00;99.90
51500;DHT22;39101;53.478;6.158;2023-04-15T03:41:07;6.10;99.90
51500;DHT22;39101;53.478;6.158;2023-04-15T03:43:33;6.10;99.90
51500;DHT22;39101;53.478;6.158;2023-04-15T03:45:59;5.90;99.90
51500;DHT22;39101;53.478;6.158;2023-04-15T03:48:25;5.90;99.90
51500;DHT22;39101;53.478;6.158;2023-04-15T03:50:51;6.00;99.90
51500;DHT22;39101;53.478;6.158;2023-04-15T03:53:16;6.00;99.90
51500;DHT22;39101;53.478;6.158;2023-04-15T03:55:42;5.80;99.90
51500;DHT22;39101;53.478;6.158;2023-04-15T03:58:08;6.00;99.90
51500;DHT22;39101;53.478;6.158;2023-04-15T04:00:37;5.90;99.90
51500;DHT22;39101;53.478;6.158;2023-04-15T04:03:03;6.00;99.90
51500;DHT22;39101;53.478;6.158;2023-04-15T04:05:29;6.10;99.90
51500;DHT22;39101;53.478;6.158;2023-04-15T04:07:55;5.70;99.90
51500;DHT22;39101;53.478;6.158;2023-04-15T04:10:20;5.80;99.90
51500;DHT22;39101;53.478;6.158;2023-04-15T04:12:46;5.80;99.90
51500;DHT22;39101;53.478;6.158;2023-04-15T04:15:12;5.80;99.90
51500;DHT22;39101;53.478;6.158;2023-04-15T04:17:37;5.80;99.90
51500;DHT22;39101;53.478;6.158;2023-04-15T04:20:03;5.60;99.90
51500;DHT22;39101;53.478;6.158;2023-04-15T04:22:30;5.60;99.90
51500;DHT22;39101;53.478;6.158;2023-04-15T04:24:55;5.80;99.90
51500;DHT22;39101;53.478;6.158;2023-04-15T04:27:24;5.80;99.90
51500;DHT22;39101;53.478;6.158;2023-04-15T04:29:49;5.60;99.90
51500;DHT22;39101;53.478;6.158;2023-04-15T04:32:15;5.60;99.90
51500;DHT22;39101;53.478;6.158;2023-04-15T04:34:41;5.60;99.90
51500;DHT22;39101;53.478;6.158;2023-04-15T04:37:07;5.70;99.90
51500;DHT22;39101;53.478;6.158;2023-04-15T04:39:32;5.70;99.90
51500;DHT22;39101;53.478;6.158;2023-04-15T04:41:58;5.60;99.90
51500;DHT22;39101;53.478;6.158;2023-04-15T04:44:23;5.50;99.90
51500;DHT22;39101;53.478;6.158;2023-04-15T04:46:49;5.70;99.90
51500;DHT22;39101;53.478;6.158;2023-04-15T04:49:15;5.50;99.90
51500;DHT22;39101;53.478;6.158;2023-04-15T04:51:40;5.60;99.90
51500;DHT22;39101;53.478;6.158;2023-04-15T04:54:06;5.50;99.90
51500;DHT22;39101;53.478;6.158;2023-04-15T04:56:32;5.50;99.90
51500;DHT22;39101;53.478;6.158;2023-04-15T04:58:59;5.70;99.90
51500;DHT22;39101;53.478;6.158;2023-04-15T05:01:25;5.80;99.90
51500;DHT22;39101;53.478;6.158;2023-04-15T05:03:52;5.60;99.90
51500;DHT22;39101;53.478;6.158;2023-04-15T05:06:17;5.80;99.90
51500;DHT22;39101;53.478;6.158;2023-04-15T05:08:43;5.80;99.90
51500;DHT22;39101;53.478;6.158;2023-04-15T05:11:09;5.90;99.90
51500;DHT22;39101;53.478;6.158;2023-04-15T05:13:34;5.70;99.90
51500;DHT22;39101;53.478;6.158;2023-04-15T05:16:04;5.90;99.90
51500;DHT22;39101;53.478;6.158;2023-04-15T05:18:29;6.00;99.90
51500;DHT22;39101;53.478;6.158;2023-04-15T05:20:55;5.90;99.90
51500;DHT22;39101;53.478;6.158;2023-04-15T05:23:21;6.00;99.90
51500;DHT22;39101;53.478;6.158;2023-04-15T05:25:47;6.20;99.90
51500;DHT22;39101;53.478;6.158;2023-04-15T05:28:12;6.20;99.90
51500;DHT22;39101;53.478;6.158;2023-04-15T05:30:38;6.10;99.90
51500;DHT22;39101;53.478;6.158;2023-04-15T05:33:04;6.10;99.90
51500;DHT22;39101;53.478;6.158;2023-04-15T05:35:30;6.40;99.90
51500;DHT22;39101;53.478;6.158;2023-04-15T05:37:55;6.30;99.90
51500;DHT22;39101;53.478;6.158;2023-04-15T05:40:22;6.50;99.90
51500;DHT22;39101;53.478;6.158;2023-04-15T05:42:48;6.70;99.90
51500;DHT22;39101;53.478;6.158;2023-04-15T05:45:14;6.60;99.90
51500;DHT22;39101;53.478;6.158;2023-04-15T05:47:39;6.60;99.90
51500;DHT22;39101;53.478;6.158;2023-04-15T05:50:05;6.90;99.90
51500;DHT22;39101;53.478;6.158;2023-04-15T05:52:31;6.90;99.90
51500;DHT22;39101;53.478;6.158;2023-04-15T05:54:57;6.90;99.90
51500;DHT22;39101;53.478;6.158;2023-04-15T05:57:23;7.10;99.90
51500;DHT22;39101;53.478;6.158;2023-04-15T05:59:48;7.10;99.90
51500;DHT22;39101;53.478;6.158;2023-04-15T06:02:16;7.40;99.90
51500;DHT22;39101;53.478;6.158;2023-04-15T06:04:42;7.40;99.90
51500;DHT22;39101;53.478;6.158;2023-04-15T06:07:08;7.50;99.90
51500;DHT22;39101;53.478;6.158;2023-04-15T06:09:34;7.60;99.90
51500;DHT22;39101;53.478;6.158;2023-04-15T06:12:00;7.80;99.90
51500;DHT22;39101;53.478;6.158;2023-04-15T06:14:26;7.70;99.90
51500;DHT22;39101;53.478;6.158;2023-04-15T06:16:52;7.90;99.90
51500;DHT22;39101;53.478;6.158;2023-04-15T06:19:18;7.90;99.90
51500;DHT22;39101;53.478;6.158;2023-04-15T06:21:44;8.10;99.90
51500;DHT22;39101;53.478;6.158;2023-04-15T06:24:11;8.20;99.90
51500;DHT22;39101;53.478;6.158;2023-04-15T06:26:37;8.20;99.90
51500;DHT22;39101;53.478;6.158;2023-04-15T06:29:02;8.40;99.90
51500;DHT22;39101;53.478;6.158;2023-04-15T06:31:29;8.30;99.90
51500;DHT22;39101;53.478;6.158;2023-04-15T06:33:55;8.50;99.90
51500;DHT22;39101;53.478;6.158;2023-04-15T06:36:20;8.40;99.90
51500;DHT22;39101;53.478;6.158;2023-04-15T06:38:46;8.60;99.90
51500;DHT22;39101;53.478;6.158;2023-04-15T06:41:12;8.60;99.90
51500;DHT22;39101;53.478;6.158;2023-04-15T06:43:38;8.60;99.90
51500;DHT22;39101;53.478;6.158;2023-04-15T06:46:04;8.60;99.90
51500;DHT22;39101;53.478;6.158;2023-04-15T06:48:30;8.60;99.90
51500;DHT22;39101;53.478;6.158;2023-04-15T06:50:55;8.60;99.90
51500;DHT22;39101;53.478;6.158;2023-04-15T06:53:24;8.50;99.90
51500;DHT22;39101;53.478;6.158;2023-04-15T06:55:50;8.60;99.90
51500;DHT22;39101;53.478;6.158;2023-04-15T06:58:15;8.50;99.90
51500;DHT22;39101;53.478;6.158;2023-04-15T07:00:41;8.60;99.90
51500;DHT22;39101;53.478;6.158;2023-04-15T07:03:07;8.70;99.90
51500;DHT22;39101;53.478;6.158;2023-04-15T07:05:35;8.80;99.90
51500;DHT22;39101;53.478;6.158;2023-04-15T07:08:01;8.70;99.90
51500;DHT22;39101;53.478;6.158;2023-04-15T07:10:26;8.70;99.90
51500;DHT22;39101;53.478;6.158;2023-04-15T07:12:52;8.70;99.90
51500;DHT22;39101;53.478;6.158;2023-04-15T07:15:18;9.50;99.90
51500;DHT22;39101;53.478;6.158;2023-04-15T07:17:43;8.70;99.90
51500;DHT22;39101;53.478;6.158;2023-04-15T07:20:09;8.70;99.90
51500;DHT22;39101;53.478;6.158;2023-04-15T07:22:35;8.90;99.90
51500;DHT22;39101;53.478;6.158;2023-04-15T07:25:01;9.00;99.90
51500;DHT22;39101;53.478;6.158;2023-04-15T07:27:27;8.90;99.90
51500;DHT22;39101;53.478;6.158;2023-04-15T07:29:52;9.10;99.90
51500;DHT22;39101;53.478;6.158;2023-04-15T07:32:18;9.00;99.90
51500;DHT22;39101;53.478;6.158;2023-04-15T07:34:44;9.10;99.90
51500;DHT22;39101;53.478;6.158;2023-04-15T07:37:10;9.10;99.90
51500;DHT22;39101;53.478;6.158;2023-04-15T07:39:35;9.20;99.90
51500;DHT22;39101;53.478;6.158;2023-04-15T07:42:02;9.10;99.90
51500;DHT22;39101;53.478;6.158;2023-04-15T07:44:29;9.10;99.90
51500;DHT22;39101;53.478;6.158;2023-04-15T07:46:55;9.00;99.90
51500;DHT22;39101;53.478;6.158;2023-04-15T07:49:21;9.10;99.90
51500;DHT22;39101;53.478;6.158;2023-04-15T07:51:50;9.10;99.90
51500;DHT22;39101;53.478;6.158;2023-04-15T07:54:16;9.40;99.90
51500;DHT22;39101;53.478;6.158;2023-04-15T07:56:42;9.30;99.90
51500;DHT22;39101;53.478;6.158;2023-04-15T07:59:08;9.40;99.90
51500;DHT22;39101;53.478;6.158;2023-04-15T08:01:34;9.40;99.90
51500;DHT22;39101;53.478;6.158;2023-04-15T08:04:00;9.40;99.90
51500;DHT22;39101;53.478;6.158;2023-04-15T08:06:25;9.50;99.90
51500;DHT22;39101;53.478;6.158;2023-04-15T08:08:52;9.60;99.90
51500;DHT22;39101;53.478;6.158;2023-04-15T08:11:19;9.60;99.90
51500;DHT22;39101;53.478;6.158;2023-04-15T08:13:45;9.70;99.90
51500;DHT22;39101;53.478;6.158;2023-04-15T08:16:18;9.50;99.90
51500;DHT22;39101;53.478;6.158;2023-04-15T08:18:46;9.60;99.90
51500;DHT22;39101;53.478;6.158;2023-04-15T08:21:12;9.60;99.90
51500;DHT22;39101;53.478;6.158;2023-04-15T08:23:38;9.70;99.90
51500;DHT22;39101;53.478;6.158;2023-04-15T08:26:04;9.50;99.90
51500;DHT22;39101;53.478;6.158;2023-04-15T08:28:29;9.50;99.90
51500;DHT22;39101;53.478;6.158;2023-04-15T08:30:56;9.60;99.90
51500;DHT22;39101;53.478;6.158;2023-04-15T08:33:21;9.70;99.90
51500;DHT22;39101;53.478;6.158;2023-04-15T08:35:48;9.60;99.90
51500;DHT22;39101;53.478;6.158;2023-04-15T08:38:13;9.50;99.90
51500;DHT22;39101;53.478;6.158;2023-04-15T08:40:42;9.50;99.90
51500;DHT22;39101;53.478;6.158;2023-04-15T08:43:10;9.50;99.90
51500;DHT22;39101;53.478;6.158;2023-04-15T08:45:38;9.50;99.90
51500;DHT22;39101;53.478;6.158;2023-04-15T08:48:04;9.50;99.90
51500;DHT22;39101;53.478;6.158;2023-04-15T08:50:31;9.40;99.90
51500;DHT22;39101;53.478;6.158;2023-04-15T08:53:00;9.50;99.90
51500;DHT22;39101;53.478;6.158;2023-04-15T08:55:29;9.50;99.90
51500;DHT22;39101;53.478;6.158;2023-04-15T08:57:58;9.70;99.90
51500;DHT22;39101;53.478;6.158;2023-04-15T09:00:25;9.60;99.90
51500;DHT22;39101;53.478;6.158;2023-04-15T09:02:51;9.60;99.90
51500;DHT22;39101;53.478;6.158;2023-04-15T09:05:17;9.70;99.90
51500;DHT22;39101;53.478;6.158;2023-04-15T09:07:42;9.70;99.90
51500;DHT22;39101;53.478;6.158;2023-04-15T09:10:09;10.00;99.90
51500;DHT22;39101;53.478;6.158;2023-04-15T09:12:35;10.10;99.90
51500;DHT22;39101;53.478;6.158;2023-04-15T09:15:02;10.20;99.90
51500;DHT22;39101;53.478;6.158;2023-04-15T09:17:28;10.20;99.90
51500;DHT22;39101;53.478;6.158;2023-04-15T09:20:13;10.40;99.90
51500;DHT22;39101;53.478;6.158;2023-04-15T09:22:40;10.30;99.90
51500;DHT22;39101;53.478;6.158;2023-04-15T09:27:53;10.40;99.90
51500;DHT22;39101;53.478;6.158;2023-04-15T09:30:19;10.60;99.90
51500;DHT22;39101;53.478;6.158;2023-04-15T09:32:54;10.70;99.90
51500;DHT22;39101;53.478;6.158;2023-04-15T09:35:21;10.70;99.90
51500;DHT22;39101;53.478;6.158;2023-04-15T09:37:48;10.60;99.90
51500;DHT22;39101;53.478;6.158;2023-04-15T09:40:14;10.60;99.90
51500;DHT22;39101;53.478;6.158;2023-04-15T09:42:55;10.60;99.90
51500;DHT22;39101;53.478;6.158;2023-04-15T09:45:22;10.50;99.90
51500;DHT22;39101;53.478;6.158;2023-04-15T09:47:48;10.50;99.90
51500;DHT22;39101;53.478;6.158;2023-04-15T09:50:16;10.60;99.90
51500;DHT22;39101;53.478;6.158;2023-04-15T09:52:43;10.70;99.90
51500;DHT22;39101;53.478;6.158;2023-04-15T09:55:09;10.70;99.90
51500;DHT22;39101;53.478;6.158;2023-04-15T09:57:36;10.80;99.90
51500;DHT22;39101;53.478;6.158;2023-04-15T10:00:07;10.70;99.90
51500;DHT22;39101;53.478;6.158;2023-04-15T10:02:37;10.60;99.90
51500;DHT22;39101;53.478;6.158;2023-04-15T10:05:04;10.50;99.90
51500;DHT22;39101;53.478;6.158;2023-04-15T10:07:31;10.50;99.90
51500;DHT22;39101;53.478;6.158;2023-04-15T10:09:59;10.70;99.90
51500;DHT22;39101;53.478;6.158;2023-04-15T10:12:25;10.70;99.90
51500;DHT22;39101;53.478;6.158;2023-04-15T10:14:56;10.60;99.90
51500;DHT22;39101;53.478;6.158;2023-04-15T10:17:27;10.80;99.90
51500;DHT22;39101;53.478;6.158;2023-04-15T10:20:00;10.70;99.90
51500;DHT22;39101;53.478;6.158;2023-04-15T10:22:27;10.80;99.90
51500;DHT22;39101;53.478;6.158;2023-04-15T10:24:55;10.70;99.90
51500;DHT22;39101;53.478;6.158;2023-04-15T10:27:21;10.70;99.90
51500;DHT22;39101;53.478;6.158;2023-04-15T10:29:49;10.70;99.90
51500;DHT22;39101;53.478;6.158;2023-04-15T10:32:17;10.70;99.90
51500;DHT22;39101;53.478;6.158;2023-04-15T10:34:44;10.70;99.90
51500;DHT22;39101;53.478;6.158;2023-04-15T10:37:10;10.70;99.90
51500;DHT22;39101;53.478;6.158;2023-04-15T10:42:12;10.70;99.90
51500;DHT22;39101;53.478;6.158;2023-04-15T10:44:47;10.70;99.90
51500;DHT22;39101;53.478;6.158;2023-04-15T10:47:15;10.50;99.90
51500;DHT22;39101;53.478;6.158;2023-04-15T10:49:46;10.40;99.90
51500;DHT22;39101;53.478;6.158;2023-04-15T10:52:13;10.40;99.90
51500;DHT22;39101;53.478;6.158;2023-04-15T10:54:39;10.40;99.90
51500;DHT22;39101;53.478;6.158;2023-04-15T10:57:08;10.20;99.90
51500;DHT22;39101;53.478;6.158;2023-04-15T10:59:58;10.10;99.90
51500;DHT22;39101;53.478;6.158;2023-04-15T11:02:58;9.90;99.90
51500;DHT22;39101;53.478;6.158;2023-04-15T11:05:50;10.00;99.90
51500;DHT22;39101;53.478;6.158;2023-04-15T11:08:16;10.10;99.90
51500;DHT22;39101;53.478;6.158;2023-04-15T11:15:37;10.40;99.90
51500;DHT22;39101;53.478;6.158;2023-04-15T11:18:12;10.40;99.90
51500;DHT22;39101;53.478;6.158;2023-04-15T11:20:40;10.60;99.90
51500;DHT22;39101;53.478;6.158;2023-04-15T11:23:07;10.50;99.90
51500;DHT22;39101;53.478;6.158;2023-04-15T11:25:34;10.70;99.90
51500;DHT22;39101;53.478;6.158;2023-04-15T11:28:01;10.50;99.90
51500;DHT22;39101;53.478;6.158;2023-04-15T11:30:30;10.60;99.90
51500;DHT22;39101;53.478;6.158;2023-04-15T11:33:08;10.40;99.90
51500;DHT22;39101;53.478;6.158;2023-04-15T11:35:34;10.20;99.90
51500;DHT22;39101;53.478;6.158;2023-04-15T11:38:04;10.20;99.90
51500;DHT22;39101;53.478;6.158;2023-04-15T11:40:30;10.10;99.90
51500;DHT22;39101;53.478;6.158;2023-04-15T11:45:29;10.10;99.90
51500;DHT22;39101;53.478;6.158;2023-04-15T11:48:04;10.00;99.90
51500;DHT22;39101;53.478;6.158;2023-04-15T11:50:30;9.90;99.90
51500;DHT22;39101;53.478;6.158;2023-04-15T11:52:58;9.80;99.90
51500;DHT22;39101;53.478;6.158;2023-04-15T11:55:24;10.00;99.90
51500;DHT22;39101;53.478;6.158;2023-04-15T12:00:31;9.90;99.90
51500;DHT22;39101;53.478;6.158;2023-04-15T12:06:10;9.60;99.90
51500;DHT22;39101;53.478;6.158;2023-04-15T12:16:34;9.90;99.90
51500;DHT22;39101;53.478;6.158;2023-04-15T12:19:14;9.90;99.90
51500;DHT22;39101;53.478;6.158;2023-04-15T12:21:44;9.90;99.90
51500;DHT22;39101;53.478;6.158;2023-04-15T12:24:10;9.90;99.90
51500;DHT22;39101;53.478;6.158;2023-04-15T12:26:43;9.90;99.90
51500;DHT22;39101;53.478;6.158;2023-04-15T12:29:11;9.90;99.90
51500;DHT22;39101;53.478;6.158;2023-04-15T12:31:47;9.90;99.90
51500;DHT22;39101;53.478;6.158;2023-04-15T12:34:13;10.10;99.90
51500;DHT22;39101;53.478;6.158;2023-04-15T12:36:39;10.00;99.90
51500;DHT22;39101;53.478;6.158;2023-04-15T12:39:05;10.10;99.90
51500;DHT22;39101;53.478;6.158;2023-04-15T12:41:32;10.20;99.90
51500;DHT22;39101;53.478;6.158;2023-04-15T12:43:58;10.30;99.90
51500;DHT22;39101;53.478;6.158;2023-04-15T12:46:24;10.30;99.90
51500;DHT22;39101;53.478;6.158;2023-04-15T12:48:50;10.40;99.90
51500;DHT22;39101;53.478;6.158;2023-04-15T12:51:18;10.20;99.90
51500;DHT22;39101;53.478;6.158;2023-04-15T12:53:44;10.10;99.90
51500;DHT22;39101;53.478;6.158;2023-04-15T12:56:09;10.10;99.90
51500;DHT22;39101;53.478;6.158;2023-04-15T12:58:35;10.10;99.90
51500;DHT22;39101;53.478;6.158;2023-04-15T13:01:01;10.00;99.90
51500;DHT22;39101;53.478;6.158;2023-04-15T13:03:27;10.10;99.90
51500;DHT22;39101;53.478;6.158;2023-04-15T13:05:52;10.20;99.90
51500;DHT22;39101;53.478;6.158;2023-04-15T13:08:18;10.00;99.90
51500;DHT22;39101;53.478;6.158;2023-04-15T13:10:44;10.00;99.90
51500;DHT22;39101;53.478;6.158;2023-04-15T13:13:09;10.30;99.90
51500;DHT22;39101;53.478;6.158;2023-04-15T13:15:35;10.20;99.90
51500;DHT22;39101;53.478;6.158;2023-04-15T13:18:01;10.40;99.90
51500;DHT22;39101;53.478;6.158;2023-04-15T13:20:27;10.40;99.90
51500;DHT22;39101;53.478;6.158;2023-04-15T13:22:53;10.40;99.90
51500;DHT22;39101;53.478;6.158;2023-04-15T13:25:19;10.40;99.90
51500;DHT22;39101;53.478;6.158;2023-04-15T13:27:45;10.30;99.90
51500;DHT22;39101;53.478;6.158;2023-04-15T13:30:11;10.40;99.90
51500;DHT22;39101;53.478;6.158;2023-04-15T13:32:37;10.30;99.90
51500;DHT22;39101;53.478;6.158;2023-04-15T13:35:03;10.40;99.90
51500;DHT22;39101;53.478;6.158;2023-04-15T13:37:29;10.30;99.90
51500;DHT22;39101;53.478;6.158;2023-04-15T13:39:56;10.20;99.90
51500;DHT22;39101;53.478;6.158;2023-04-15T13:42:22;10.10;99.90
51500;DHT22;39101;53.478;6.158;2023-04-15T13:44:49;10.10;99.90
51500;DHT22;39101;53.478;6.158;2023-04-15T13:47:16;10.20;99.90
51500;DHT22;39101;53.478;6.158;2023-04-15T13:49:42;10.00;99.90
51500;DHT22;39101;53.478;6.158;2023-04-15T13:52:08;10.10;99.90
51500;DHT22;39101;53.478;6.158;2023-04-15T13:54:34;10.10;99.90
51500;DHT22;39101;53.478;6.158;2023-04-15T13:57:00;10.10;99.90
51500;DHT22;39101;53.478;6.158;2023-04-15T13:59:26;10.00;99.90
51500;DHT22;39101;53.478;6.158;2023-04-15T14:01:52;10.10;99.90
51500;DHT22;39101;53.478;6.158;2023-04-15T14:04:17;10.00;99.90
51500;DHT22;39101;53.478;6.158;2023-04-15T14:06:43;9.80;99.90
51500;DHT22;39101;53.478;6.158;2023-04-15T14:09:09;9.90;99.90
51500;DHT22;39101;53.478;6.158;2023-04-15T14:11:36;9.90;99.90
51500;DHT22;39101;53.478;6.158;2023-04-15T14:14:02;9.80;99.90
51500;DHT22;39101;53.478;6.158;2023-04-15T14:16:27;9.80;99.90
51500;DHT22;39101;53.478;6.158;2023-04-15T14:18:53;9.80;99.90
51500;DHT22;39101;53.478;6.158;2023-04-15T14:21:19;9.90;99.90
51500;DHT22;39101;53.478;6.158;2023-04-15T14:23:45;9.80;99.90
51500;DHT22;39101;53.478;6.158;2023-04-15T14:26:11;9.70;99.90
51500;DHT22;39101;53.478;6.158;2023-04-15T14:28:38;9.70;99.90
51500;DHT22;39101;53.478;6.158;2023-04-15T14:31:03;9.70;99.90
51500;DHT22;39101;53.478;6.158;2023-04-15T14:33:29;9.70;99.90
51500;DHT22;39101;53.478;6.158;2023-04-15T14:35:55;9.50;99.90
51500;DHT22;39101;53.478;6.158;2023-04-15T14:38:20;9.50;99.90
51500;DHT22;39101;53.478;6.158;2023-04-15T14:40:47;9.60;99.90
51500;DHT22;39101;53.478;6.158;2023-04-15T14:43:13;9.40;99.90
51500;DHT22;39101;53.478;6.158;2023-04-15T14:45:38;9.40;99.90
51500;DHT22;39101;53.478;6.158;2023-04-15T14:48:04;9.60;99.90
51500;DHT22;39101;53.478;6.158;2023-04-15T14:50:34;9.60;99.90
51500;DHT22;39101;53.478;6.158;2023-04-15T14:53:00;9.40;99.90
51500;DHT22;39101;53.478;6.158;2023-04-15T14:55:26;9.50;99.90
51500;DHT22;39101;53.478;6.158;2023-04-15T14:57:52;9.50;99.90
51500;DHT22;39101;53.478;6.158;2023-04-15T15:00:17;9.30;99.90
51500;DHT22;39101;53.478;6.158;2023-04-15T15:02:43;9.30;99.90
51500;DHT22;39101;53.478;6.158;2023-04-15T15:05:09;9.30;99.90
51500;DHT22;39101;53.478;6.158;2023-04-15T15:07:37;9.20;99.90
51500;DHT22;39101;53.478;6.158;2023-04-15T15:10:03;9.20;99.90
51500;DHT22;39101;53.478;6.158;2023-04-15T15:12:29;9.10;99.90
51500;DHT22;39101;53.478;6.158;2023-04-15T15:14:55;9.30;99.90
51500;DHT22;39101;53.478;6.158;2023-04-15T15:17:21;9.10;99.90
51500;DHT22;39101;53.478;6.158;2023-04-15T15:19:46;9.00;99.90
51500;DHT22;39101;53.478;6.158;2023-04-15T15:22:12;9.00;99.90
51500;DHT22;39101;53.478;6.158;2023-04-15T15:24:38;9.00;99.90
51500;DHT22;39101;53.478;6.158;2023-04-15T15:27:04;8.90;99.90
51500;DHT22;39101;53.478;6.158;2023-04-15T15:29:29;8.90;99.90
51500;DHT22;39101;53.478;6.158;2023-04-15T15:31:55;9.00;99.90
51500;DHT22;39101;53.478;6.158;2023-04-15T15:34:21;8.80;99.90
51500;DHT22;39101;53.478;6.158;2023-04-15T15:36:47;8.90;99.90
51500;DHT22;39101;53.478;6.158;2023-04-15T15:39:13;8.80;99.90
51500;DHT22;39101;53.478;6.158;2023-04-15T15:41:38;8.80;99.90
51500;DHT22;39101;53.478;6.158;2023-04-15T15:44:04;8.90;99.90
51500;DHT22;39101;53.478;6.158;2023-04-15T15:46:29;8.90;99.90
51500;DHT22;39101;53.478;6.158;2023-04-15T15:48:58;8.80;99.90
51500;DHT22;39101;53.478;6.158;2023-04-15T15:51:24;8.60;99.90
51500;DHT22;39101;53.478;6.158;2023-04-15T15:53:51;8.80;99.90
51500;DHT22;39101;53.478;6.158;2023-04-15T15:56:17;8.80;99.90
51500;DHT22;39101;53.478;6.158;2023-04-15T15:58:43;8.60;99.90
51500;DHT22;39101;53.478;6.158;2023-04-15T16:01:09;8.80;99.90
51500;DHT22;39101;53.478;6.158;2023-04-15T16:03:35;8.60;99.90
51500;DHT22;39101;53.478;6.158;2023-04-15T16:06:01;8.60;99.90